Time;durP1;ratioP1;P1;durP2;ratioP2;P2;SDS_P1;SDS_P2;PMS_P1;PMS_P2;Temp;Humidity;BMP_temperature;BMP_pressure;BME280_temperature;BME280_humidity;BME280_pressure;Samples;Min_cycle;Max_cycle;Signal;HPM_P1;HPM_P2
2023/09/24 00:01:06;;;;;;;2.10;1.70;;;;;;;13.14;72.27;99912.88;7256998;40;20392;31
2023/09/24 00:06:42;;;;;;;6.80;2.10;;;;;;;13.15;72.37;99903.75;7266508;39;20276;31
2023/09/24 00:12:17;;;;;;;4.50;1.80;;;;;;;13.14;71.91;99914.75;7258317;40;20363;31
2023/09/24 00:22:58;;;;;;;3.15;1.50;;;;;;;12.91;72.18;99926.13;7270054;39;21342;31
2023/09/24 00:33:21;;;;;;;2.87;1.80;;;;;;;12.89;71.53;99930.88;7332559;39;21189;31
2023/09/24 00:44:01;;;;;;;3.57;2.00;;;;;;;12.49;72.50;99950.47;7301639;39;20321;31
2023/09/24 00:49:36;;;;;;;4.97;2.63;;;;;;;12.31;72.75;99952.38;7275226;40;20362;31
2023/09/24 00:55:11;;;;;;;3.65;2.20;;;;;;;12.34;72.54;99943.94;7335884;39;20336;31
2023/09/24 01:00:46;;;;;;;4.30;1.80;;;;;;;12.20;73.73;99942.66;7299902;39;20237;31
2023/09/24 01:06:20;;;;;;;3.60;1.90;;;;;;;12.12;73.50;99942.63;7229077;40;20398;31
2023/09/24 01:11:40;;;;;;;3.30;1.80;;;;;;;12.20;73.49;99949.91;7228691;40;20280;31
2023/09/24 01:17:17;;;;;;;5.37;1.73;;;;;;;12.31;72.61;99948.81;7235040;40;20878;31
2023/09/24 01:22:52;;;;;;;7.80;1.95;;;;;;;12.24;72.65;99953.19;7199134;40;20737;31
2023/09/24 01:28:27;;;;;;;3.10;1.77;;;;;;;12.13;72.74;99965.94;7212059;40;20753;31
2023/09/24 01:34:04;;;;;;;3.10;1.80;;;;;;;11.78;72.77;99949.78;7266193;40;20341;31
2023/09/24 01:39:39;;;;;;;2.30;1.90;;;;;;;11.72;73.92;99962.03;7221174;40;20231;31
2023/09/24 01:45:16;;;;;;;3.17;2.00;;;;;;;11.72;74.16;99945.00;7279836;39;20236;31
2023/09/24 01:50:47;;;;;;;3.53;1.90;;;;;;;11.71;73.44;99946.00;7247032;40;22035;31
2023/09/24 01:56:23;;;;;;;6.45;1.90;;;;;;;11.62;73.84;99955.87;7211338;40;20246;31
2023/09/24 02:08:00;;;;;;;3.63;2.10;;;;;;;11.44;76.03;99948.75;7195831;40;20261;31
2023/09/24 02:13:38;;;;;;;3.05;1.70;;;;;;;11.36;76.86;99943.28;7221012;40;20334;31
2023/09/24 02:24:02;;;;;;;4.17;2.10;;;;;;;11.45;77.17;99954.00;7299083;39;20869;31
2023/09/24 02:29:42;;;;;;;5.57;2.00;;;;;;;11.38;77.83;99958.31;7310372;39;20386;31
2023/09/24 02:35:02;;;;;;;3.37;1.80;;;;;;;11.33;77.70;99960.63;7284612;40;20241;31
2023/09/24 02:40:38;;;;;;;4.57;1.90;;;;;;;11.21;78.89;99967.25;7280579;40;20343;31
2023/09/24 02:46:15;;;;;;;3.27;2.00;;;;;;;11.23;78.70;99960.69;7256056;40;20244;31
2023/09/24 02:51:35;;;;;;;2.70;2.00;;;;;;;11.29;78.37;99964.63;7238302;40;20242;31
2023/09/24 02:56:58;;;;;;;2.95;1.80;;;;;;;11.32;77.79;99966.19;7226282;40;20241;31
2023/09/24 03:02:33;;;;;;;3.33;1.70;;;;;;;11.32;77.93;99964.31;7266571;40;20345;31
2023/09/24 03:08:09;;;;;;;4.00;1.75;;;;;;;11.29;78.59;99965.47;7293479;39;20240;31
2023/09/24 03:13:30;;;;;;;4.40;1.70;;;;;;;11.26;78.25;99979.28;7281384;40;20299;31
2023/09/24 03:19:04;;;;;;;4.50;1.70;;;;;;;11.18;78.80;99984.59;7290971;40;20253;31
2023/09/24 03:24:41;;;;;;;3.30;1.80;;;;;;;11.14;78.69;99980.50;7215835;40;20344;31
2023/09/24 03:30:17;;;;;;;4.37;1.90;;;;;;;11.11;77.98;99985.31;7256185;40;20370;31
2023/09/24 03:35:49;;;;;;;5.83;1.97;;;;;;;10.93;78.70;99987.97;7009688;40;21423;31
2023/09/24 03:41:24;;;;;;;2.40;1.60;;;;;;;10.85;78.61;100004.91;7258871;40;20492;31
2023/09/24 03:46:44;;;;;;;2.83;1.70;;;;;;;10.72;78.06;100011.62;7247520;40;20256;31
2023/09/24 03:52:20;;;;;;;2.57;1.80;;;;;;;10.58;78.25;100007.56;7240096;40;20377;31
2023/09/24 03:57:56;;;;;;;4.60;1.80;;;;;;;10.51;79.04;100011.00;7258663;40;20509;31
2023/09/24 04:03:16;;;;;;;3.77;1.93;;;;;;;10.47;78.53;100026.63;7255652;40;20250;31
2023/09/24 04:08:52;;;;;;;6.27;1.70;;;;;;;10.38;78.24;100017.56;7280162;39;20252;31
2023/09/24 04:14:12;;;;;;;4.63;1.47;;;;;;;10.36;77.67;100026.78;7330100;39;20235;31
2023/09/24 04:19:48;;;;;;;6.37;1.87;;;;;;;10.09;78.38;100034.75;7327166;39;20801;31
2023/09/24 04:25:26;;;;;;;1.93;1.47;;;;;;;9.96;79.00;100035.84;7280733;40;20247;31
2023/09/24 04:30:46;;;;;;;2.50;1.60;;;;;;;10.07;78.50;100044.78;7217373;40;20242;31
2023/09/24 04:36:21;;;;;;;5.60;1.80;;;;;;;10.16;78.37;100049.34;7236022;40;20254;31
2023/09/24 04:41:58;;;;;;;5.23;1.50;;;;;;;10.15;78.06;100058.38;7237295;40;20762;31
2023/09/24 04:47:34;;;;;;;2.93;1.70;;;;;;;10.16;77.50;100060.13;7254517;40;20265;31
2023/09/24 04:52:55;;;;;;;3.25;1.65;;;;;;;10.31;77.05;100078.41;7268967;40;20272;31
2023/09/24 04:58:29;;;;;;;2.50;1.40;;;;;;;10.38;76.49;100084.94;7225396;40;20375;31
2023/09/24 05:04:02;;;;;;;2.40;1.55;;;;;;;10.18;76.55;100098.56;7204171;40;20246;31
2023/09/24 05:09:23;;;;;;;2.20;1.70;;;;;;;10.06;76.36;100108.56;7256382;40;20302;31
2023/09/24 05:20:15;;;;;;;;;;;;;;;;;;;;;
2023/09/24 05:30:28;;;;;;;4.40;1.80;;;;;;;10.32;75.61;100127.75;7358418;39;20268;31
2023/09/24 05:41:09;;;;;;;2.10;1.43;;;;;;;10.44;75.11;100134.72;7357146;39;20828;31
2023/09/24 05:46:45;;;;;;;2.70;1.50;;;;;;;10.25;74.81;100150.88;7298867;40;20308;31
2023/09/24 05:52:06;;;;;;;2.90;1.60;;;;;;;10.04;75.60;100152.81;7197825;40;20397;31
2023/09/24 06:02:46;;;;;;;3.10;2.20;;;;;;;10.00;76.76;100151.41;7238626;40;20273;31
2023/09/24 06:08:21;;;;;;;4.97;1.90;;;;;;;9.89;77.65;100160.44;7184580;40;20262;31
2023/09/24 06:13:57;;;;;;;2.57;1.70;;;;;;;10.05;79.31;100168.81;7244266;40;20238;31
2023/09/24 06:19:33;;;;;;;3.63;1.70;;;;;;;10.18;79.25;100174.00;7217495;40;20258;31
2023/09/24 06:25:06;;;;;;;3.10;1.73;;;;;;;10.30;79.81;100178.25;7237028;40;20296;31
2023/09/24 06:30:41;;;;;;;2.47;1.70;;;;;;;10.44;79.10;100179.69;7198255;40;20257;31
2023/09/24 06:36:18;;;;;;;3.20;1.70;;;;;;;10.57;79.34;100174.88;7199594;40;20245;31
2023/09/24 06:41:38;;;;;;;3.67;1.80;;;;;;;10.87;78.18;100166.59;7252602;40;20358;31
2023/09/24 06:46:58;;;;;;;6.25;1.80;;;;;;;11.03;78.88;100165.97;7289259;39;20261;31
2023/09/24 06:52:34;;;;;;;2.47;1.60;;;;;;;11.21;80.01;100173.19;7234451;40;20600;31
2023/09/24 06:57:54;;;;;;;2.90;1.83;;;;;;;11.47;80.05;100173.38;7214018;40;20377;31
2023/09/24 07:03:15;;;;;;;3.85;1.75;;;;;;;11.71;80.33;100176.41;7297659;39;20860;31
2023/09/24 07:08:50;;;;;;;1.97;1.47;;;;;;;11.90;80.27;100180.00;7304755;39;20260;31
2023/09/24 07:14:24;;;;;;;3.43;1.77;;;;;;;12.14;79.48;100180.28;7293392;39;20372;31
2023/09/24 07:19:59;;;;;;;6.80;1.43;;;;;;;12.40;79.05;100183.94;7277924;40;20703;31
2023/09/24 07:25:37;;;;;;;4.00;1.70;;;;;;;12.58;80.61;100184.78;7263849;40;20760;31
2023/09/24 07:30:57;;;;;;;4.00;1.65;;;;;;;12.80;79.35;100186.16;7230241;40;20400;31
2023/09/24 07:36:33;;;;;;;7.50;2.25;;;;;;;12.97;79.99;100189.84;7250973;40;20435;31
2023/09/24 07:42:06;;;;;;;2.40;1.60;;;;;;;13.19;79.28;100183.09;7230698;40;20895;31
2023/09/24 07:47:26;;;;;;;2.80;1.60;;;;;;;13.38;77.94;100193.72;7227104;40;20966;31
2023/09/24 07:52:47;;;;;;;2.75;1.90;;;;;;;13.54;77.54;100191.09;7256373;40;20242;31
2023/09/24 07:58:27;;;;;;;3.63;1.60;;;;;;;13.70;77.18;100185.75;7238908;40;20289;31
2023/09/24 08:04:03;;;;;;;3.00;1.70;;;;;;;13.90;76.60;100192.63;7274240;40;20368;31
2023/09/24 08:09:22;;;;;;;3.70;1.90;;;;;;;14.13;76.30;100192.84;7277872;40;20252;31
2023/09/24 08:14:59;;;;;;;2.40;1.70;;;;;;;14.26;75.26;100186.97;7277080;40;20240;31
2023/09/24 08:20:34;;;;;;;7.10;1.60;;;;;;;14.45;74.83;100192.13;7238636;40;20241;31
2023/09/24 08:26:05;;;;;;;3.00;1.65;;;;;;;14.63;74.56;100202.81;7234912;40;21661;31
2023/09/24 08:31:39;;;;;;;1.80;1.60;;;;;;;14.79;74.53;100200.13;7240152;40;20246;31
2023/09/24 08:36:59;;;;;;;2.80;1.90;;;;;;;14.98;73.74;100205.22;7256468;40;20313;31
2023/09/24 08:42:35;;;;;;;2.97;1.70;;;;;;;15.02;73.06;100220.16;7259872;40;20242;31
2023/09/24 08:48:11;;;;;;;5.13;1.73;;;;;;;15.24;72.80;100216.75;7256569;40;20252;31
2023/09/24 08:53:43;;;;;;;4.30;1.60;;;;;;;15.40;71.30;100221.28;7181535;40;20337;31
2023/09/24 08:59:18;;;;;;;2.83;1.90;;;;;;;15.50;71.37;100216.56;7217319;40;20250;31
2023/09/24 09:05:03;;;;;;;3.50;1.70;;;;;;;15.68;70.51;100221.78;7229109;40;20245;31
2023/09/24 09:10:41;;;;;;;2.40;1.40;;;;;;;15.89;69.59;100221.19;7209269;40;20256;31
2023/09/24 09:16:17;;;;;;;2.60;1.70;;;;;;;15.99;68.17;100210.97;7192672;40;20281;31
2023/09/24 09:21:49;;;;;;;5.30;2.00;;;;;;;16.09;68.73;100204.31;7195450;40;20275;31
2023/09/24 09:32:13;;;;;;;4.30;1.90;;;;;;;16.53;67.97;100195.53;7261516;40;21253;31
2023/09/24 09:37:48;;;;;;;3.07;1.80;;;;;;;16.60;67.47;100193.81;7299045;39;20265;31
2023/09/24 09:43:23;;;;;;;3.63;1.90;;;;;;;16.67;66.13;100183.91;7303926;39;20244;31
2023/09/24 09:48:58;;;;;;;6.30;1.90;;;;;;;16.85;66.17;100187.16;7238384;40;20290;31
2023/09/24 09:59:35;;;;;;;3.40;1.85;;;;;;;17.06;63.34;100184.59;7212505;40;20752;31
2023/09/24 10:05:09;;;;;;;3.80;1.60;;;;;;;17.20;64.49;100182.91;7243093;40;20310;31
2023/09/24 10:10:55;;;;;;;4.90;2.00;;;;;;;17.42;63.14;100173.84;7060894;40;21265;31
2023/09/24 10:16:44;;;;;;;3.80;1.80;;;;;;;17.60;62.67;100162.59;7276029;40;20715;31
2023/09/24 10:22:40;;;;;;;2.67;1.73;;;;;;;17.78;62.00;100162.22;7228400;40;20866;31
2023/09/24 10:28:16;;;;;;;4.37;1.80;;;;;;;17.98;61.82;100158.72;7230494;40;20716;31
2023/09/24 10:34:08;;;;;;;2.73;1.80;;;;;;;18.11;60.28;100147.12;7251829;40;20790;31
2023/09/24 10:39:40;;;;;;;3.60;1.80;;;;;;;18.26;59.61;100145.19;7307358;39;20811;31
2023/09/24 10:45:25;;;;;;;2.90;1.53;;;;;;;18.42;59.22;100139.50;7235033;40;20332;31
2023/09/24 10:51:02;;;;;;;6.75;2.40;;;;;;;18.59;59.33;100145.56;7229243;40;20247;31
2023/09/24 10:56:37;;;;;;;3.23;1.77;;;;;;;18.87;57.37;100135.53;7193750;40;20294;31
2023/09/24 11:02:13;;;;;;;3.87;1.60;;;;;;;19.11;56.71;100137.00;7198420;40;20335;31
2023/09/24 11:12:53;;;;;;;3.65;2.30;;;;;;;19.35;55.75;100130.22;7265326;40;21162;31
2023/09/24 11:23:18;;;;;;;3.97;2.10;;;;;;;19.73;55.16;100127.97;7282445;39;21300;31
2023/09/24 11:33:56;;;;;;;4.57;2.10;;;;;;;19.90;54.98;100112.88;7375106;39;20842;31
2023/09/24 11:44:35;;;;;;;3.13;2.13;;;;;;;20.18;51.11;100108.13;7358090;39;21726;31
2023/09/24 11:55:17;;;;;;;3.47;2.00;;;;;;;20.51;52.28;100104.66;7319289;39;21501;31
2023/09/24 12:00:48;;;;;;;4.87;2.10;;;;;;;20.59;51.03;100105.28;7299509;39;21402;31
2023/09/24 12:06:23;;;;;;;3.17;1.80;;;;;;;20.88;50.74;100100.47;7213206;40;20268;31
2023/09/24 12:11:59;;;;;;;3.03;1.90;;;;;;;20.94;48.91;100097.72;7180399;40;20341;31
2023/09/24 12:17:34;;;;;;;2.97;2.00;;;;;;;21.11;50.61;100095.38;7169028;40;20245;31
2023/09/24 12:23:09;;;;;;;4.95;1.85;;;;;;;21.23;49.04;100087.38;7227571;40;20330;31
2023/09/24 12:28:46;;;;;;;3.15;1.70;;;;;;;21.12;43.06;100089.72;7178783;40;20351;31
2023/09/24 12:34:27;;;;;;;2.40;1.80;;;;;;;21.25;45.41;100077.87;7216149;40;21269;31
2023/09/24 12:40:06;;;;;;;2.90;1.50;;;;;;;21.35;44.02;100080.19;7263106;39;20252;31
2023/09/24 12:45:43;;;;;;;2.05;1.60;;;;;;;21.47;45.46;100068.31;7206562;40;20253;31
2023/09/24 12:51:03;;;;;;;3.20;1.67;;;;;;;21.48;43.03;100064.53;7197921;40;21248;31
2023/09/24 12:56:39;;;;;;;2.33;1.50;;;;;;;21.46;43.67;100057.56;7226401;40;20800;31
2023/09/24 13:02:17;;;;;;;2.80;1.70;;;;;;;21.36;43.16;100044.31;7211790;40;20357;31
2023/09/24 13:07:52;;;;;;;3.83;1.70;;;;;;;21.47;45.04;100034.56;7226109;40;20246;31
2023/09/24 13:13:15;;;;;;;1.85;1.50;;;;;;;21.59;44.82;100028.19;7176246;40;21173;31
2023/09/24 13:18:51;;;;;;;2.70;1.77;;;;;;;21.51;42.96;100036.66;7266300;40;20802;31
2023/09/24 13:24:26;;;;;;;4.33;1.50;;;;;;;21.45;42.78;100025.72;7246444;40;20265;31
2023/09/24 13:30:02;;;;;;;2.40;1.85;;;;;;;21.55;43.81;100015.94;7216770;40;20915;31
2023/09/24 13:35:38;;;;;;;2.20;1.50;;;;;;;21.71;43.69;100003.66;7278067;39;20774;31
2023/09/24 13:40:58;;;;;;;3.60;1.70;;;;;;;21.62;43.86;100007.72;7307892;39;20794;31
2023/09/24 13:51:41;;;;;;;2.90;1.80;;;;;;;21.49;43.15;99999.53;7354387;39;20745;31
2023/09/24 14:02:18;;;;;;;3.30;1.90;;;;;;;21.65;43.70;99988.06;7326764;39;21170;31
2023/09/24 14:07:59;;;;;;;3.08;2.00;;;;;;;21.56;44.56;99976.50;7359168;39;20369;31
2023/09/24 14:13:12;;;;;;;2.40;1.80;;;;;;;21.57;44.34;99989.16;7314876;39;20342;31
2023/09/24 14:18:32;;;;;;;2.50;1.80;;;;;;;21.45;44.84;99981.81;7319932;39;20240;31
2023/09/24 14:24:08;;;;;;;2.60;2.00;;;;;;;21.36;44.71;99981.22;7304124;40;20263;31
2023/09/24 14:29:28;;;;;;;2.97;1.65;;;;;;;21.35;43.33;99971.31;7279093;39;20334;31
2023/09/24 14:34:49;;;;;;;3.62;1.77;;;;;;;21.26;44.55;99963.53;7313222;39;20241;31
2023/09/24 14:40:27;;;;;;;3.00;1.85;;;;;;;21.14;44.90;99963.37;7325790;39;20255;31
2023/09/24 14:45:44;;;;;;;2.25;1.85;;;;;;;21.11;45.74;99961.03;7290938;40;20247;31
2023/09/24 14:51:20;;;;;;;3.95;1.98;;;;;;;21.14;46.05;99952.41;7311024;39;20311;31
2023/09/24 14:56:57;;;;;;;5.37;1.90;;;;;;;21.05;45.99;99960.00;7284700;40;20240;31
2023/09/24 15:02:18;;;;;;;2.55;1.60;;;;;;;21.07;46.21;99959.78;7259745;40;20403;31
2023/09/24 15:07:39;;;;;;;3.10;1.70;;;;;;;21.02;45.97;99960.41;7298007;39;20259;31
2023/09/24 15:13:17;;;;;;;3.76;1.96;;;;;;;20.77;45.63;99953.09;7279051;40;20367;31
2023/09/24 15:18:38;;;;;;;2.75;1.87;;;;;;;20.72;47.44;99950.16;7295470;39;20259;31
2023/09/24 15:24:13;;;;;;;2.80;1.65;;;;;;;20.62;47.08;99947.87;7324695;39;20288;31
2023/09/24 15:29:50;;;;;;;4.18;2.04;;;;;;;20.55;48.26;99945.13;7278644;40;20307;31
2023/09/24 15:35:25;;;;;;;3.85;1.90;;;;;;;20.49;48.29;99942.44;7241626;40;20287;31
2023/09/24 15:40:45;;;;;;;2.35;1.65;;;;;;;20.41;47.88;99945.34;7197167;40;20289;31
2023/09/24 15:51:24;;;;;;;2.60;1.67;;;;;;;20.21;47.96;99950.81;7309353;39;20856;31
2023/09/24 15:56:44;;;;;;;3.30;1.60;;;;;;;20.19;50.27;99955.66;7311982;39;20327;31
2023/09/24 16:02:17;;;;;;;2.22;1.67;;;;;;;20.07;49.25;99949.13;7321325;39;20322;31
2023/09/24 16:07:54;;;;;;;2.43;1.70;;;;;;;20.02;48.07;99954.38;7239223;40;20850;31
2023/09/24 16:13:15;;;;;;;3.87;1.90;;;;;;;19.89;49.36;99957.09;7197635;40;20879;31
2023/09/24 16:23:56;;;;;;;2.33;1.70;;;;;;;19.75;48.37;99956.22;7291959;39;21046;31
2023/09/24 16:34:39;;;;;;;4.25;2.00;;;;;;;19.59;49.95;99951.16;7303729;39;21135;31
2023/09/24 16:45:21;;;;;;;3.64;1.88;;;;;;;19.33;48.77;99930.00;7253485;39;20282;31
2023/09/24 16:56:00;;;;;;;2.50;1.70;;;;;;;19.22;49.84;99923.22;7297084;39;21146;31
2023/09/24 17:01:37;;;;;;;3.06;2.00;;;;;;;19.15;49.90;99936.03;7257516;40;20246;31
2023/09/24 17:06:57;;;;;;;3.00;2.00;;;;;;;19.06;50.50;99934.50;7205261;40;20315;31
2023/09/24 17:12:17;;;;;;;2.80;1.90;;;;;;;18.90;52.54;99940.31;7263032;40;20311;31
2023/09/24 17:17:53;;;;;;;4.93;2.00;;;;;;;18.70;52.52;99925.69;7247591;40;20256;31
2023/09/24 17:23:28;;;;;;;3.03;1.93;;;;;;;18.62;52.30;99929.44;7041735;40;20239;31
2023/09/24 17:29:03;;;;;;;4.54;2.00;;;;;;;18.41;52.67;99913.94;7285424;39;20244;31
2023/09/24 17:34:39;;;;;;;2.50;1.80;;;;;;;18.05;54.82;99920.56;7236227;40;20268;31
2023/09/24 17:40:15;;;;;;;3.60;1.90;;;;;;;17.83;55.54;99914.28;7247178;40;20331;31
2023/09/24 17:45:36;;;;;;;2.87;1.90;;;;;;;17.68;55.57;99932.63;7258822;40;20241;31
2023/09/24 17:51:14;;;;;;;2.53;1.63;;;;;;;17.60;55.71;99927.28;7214839;40;20262;31
2023/09/24 17:56:34;;;;;;;2.90;2.10;;;;;;;17.51;56.04;99931.97;7273724;39;20248;31
2023/09/24 18:01:54;;;;;;;2.70;1.90;;;;;;;17.24;57.13;99936.31;7284331;39;20327;31
2023/09/24 18:12:32;;;;;;;3.25;2.15;;;;;;;16.82;59.05;99938.88;7291038;39;20363;31
2023/09/24 18:22:54;;;;;;;2.60;2.00;;;;;;;16.63;58.71;99954.75;7340411;39;20281;31
2023/09/24 18:28:30;;;;;;;2.97;2.00;;;;;;;16.44;59.78;99954.41;7317302;39;20328;31
2023/09/24 18:38:55;;;;;;;2.78;1.90;;;;;;;16.20;60.12;99964.50;7319834;39;21070;31
2023/09/24 18:44:31;;;;;;;4.17;2.27;;;;;;;16.04;60.53;99967.38;7290561;39;20336;31
2023/09/24 18:50:07;;;;;;;2.90;2.10;;;;;;;16.02;61.44;99976.72;7265985;39;20419;31
2023/09/24 19:00:44;;;;;;;3.70;2.20;;;;;;;15.91;61.45;99975.28;7283540;39;21281;31
2023/09/24 19:06:20;;;;;;;4.10;2.00;;;;;;;15.84;61.23;99977.03;7213769;40;20247;31
2023/09/24 19:11:41;;;;;;;2.30;1.90;;;;;;;15.77;61.53;99979.66;7288111;39;20401;31
2023/09/24 19:17:32;;;;;;;3.43;1.93;;;;;;;15.78;61.08;99972.34;7278272;39;20475;31
2023/09/24 19:28:12;;;;;;;3.30;2.20;;;;;;;15.49;62.67;99991.19;7220161;40;20544;31
2023/09/24 19:38:53;;;;;;;3.77;2.20;;;;;;;15.26;62.85;99969.41;7218617;40;20258;31
2023/09/24 19:49:32;;;;;;;3.10;2.00;;;;;;;15.19;62.57;99969.25;7279457;40;20665;31
2023/09/24 19:55:11;;;;;;;3.40;2.20;;;;;;;15.08;63.48;99964.22;7244902;40;20253;31
2023/09/24 20:00:46;;;;;;;3.40;2.00;;;;;;;14.96;63.37;99965.66;7267029;40;20395;31
2023/09/24 20:06:21;;;;;;;3.10;1.93;;;;;;;14.95;62.69;99972.09;7257681;40;20238;31
2023/09/24 20:11:59;;;;;;;2.50;1.90;;;;;;;14.97;63.50;99975.47;7236298;40;20269;31
2023/09/24 20:17:35;;;;;;;2.10;1.60;;;;;;;15.04;62.54;99975.63;7237788;40;20257;31
2023/09/24 20:22:52;;;;;;;2.56;1.82;;;;;;;15.03;62.75;99973.91;7160663;40;21185;31
2023/09/24 20:28:29;;;;;;;3.20;2.00;;;;;;;15.06;62.43;99960.84;7169205;40;20243;31
2023/09/24 20:33:50;;;;;;;2.87;2.00;;;;;;;15.14;62.22;99965.38;7165477;40;20370;31
2023/09/24 20:39:11;;;;;;;2.73;1.80;;;;;;;15.09;62.67;99975.94;7229907;40;20246;31
2023/09/24 20:44:47;;;;;;;4.50;2.20;;;;;;;14.90;63.89;99966.34;7236758;40;20318;31
2023/09/24 20:50:26;;;;;;;4.40;2.10;;;;;;;14.92;62.90;99961.56;7254486;40;20252;31
2023/09/24 20:55:59;;;;;;;2.20;1.90;;;;;;;15.05;62.46;99961.84;7206499;40;20458;31
2023/09/24 21:01:35;;;;;;;4.00;2.00;;;;;;;15.12;62.42;99962.84;7267555;39;20246;31
2023/09/24 21:07:11;;;;;;;3.20;2.00;;;;;;;15.18;62.42;99959.41;7239903;40;20268;31
2023/09/24 21:12:46;;;;;;;3.15;2.00;;;;;;;15.18;62.27;99950.44;7239117;40;20270;31
2023/09/24 21:23:27;;;;;;;3.30;2.10;;;;;;;15.20;62.26;99941.09;7280639;39;20268;31
2023/09/24 21:29:03;;;;;;;4.73;2.30;;;;;;;15.27;61.39;99939.34;7287199;40;20244;31
2023/09/24 21:34:38;;;;;;;3.70;2.10;;;;;;;15.28;61.51;99942.91;7280746;40;20256;31
2023/09/24 21:40:15;;;;;;;3.50;2.20;;;;;;;15.13;61.71;99931.97;7238530;40;20246;31
2023/09/24 21:45:35;;;;;;;3.20;2.05;;;;;;;15.05;61.93;99934.69;7165587;40;20333;31
2023/09/24 21:51:10;;;;;;;3.15;2.10;;;;;;;14.80;63.04;99931.25;7174912;40;20240;31
2023/09/24 21:56:47;;;;;;;2.73;1.90;;;;;;;14.54;63.87;99935.25;7246954;40;20343;31
2023/09/24 22:02:08;;;;;;;2.40;2.03;;;;;;;14.19;63.89;99948.16;7256335;39;20326;31
2023/09/24 22:07:29;;;;;;;5.10;3.30;;;;;;;13.96;64.64;99952.59;7258442;40;20258;31
2023/09/24 22:13:06;;;;;;;3.35;2.40;;;;;;;13.85;65.24;99955.66;7256821;40;20328;31
2023/09/24 22:18:42;;;;;;;2.85;2.20;;;;;;;13.71;65.92;99953.59;7254557;40;20424;31
2023/09/24 22:24:00;;;;;;;2.90;2.00;;;;;;;13.64;66.09;99958.00;7268944;40;20342;31
2023/09/24 22:29:36;;;;;;;3.73;2.47;;;;;;;13.46;66.81;99948.16;7257452;40;20368;31
2023/09/24 22:35:11;;;;;;;4.30;2.00;;;;;;;13.19;67.50;99943.00;7195743;40;20331;31
2023/09/24 22:40:47;;;;;;;3.02;2.12;;;;;;;13.03;67.71;99940.22;7247513;40;20245;31
2023/09/24 22:46:21;;;;;;;3.65;2.40;;;;;;;12.80;67.87;99934.56;7266774;40;20926;31
2023/09/24 22:51:43;;;;;;;2.33;1.80;;;;;;;12.74;68.58;99940.59;7326777;39;20393;31
2023/09/24 22:57:00;;;;;;;3.40;2.00;;;;;;;12.51;69.30;99945.72;7350361;39;20246;31
2023/09/24 23:02:37;;;;;;;2.50;2.00;;;;;;;12.32;70.26;99937.88;7338763;39;20377;31
2023/09/24 23:08:13;;;;;;;3.05;1.90;;;;;;;12.22;69.60;99933.56;7301707;39;20369;31
2023/09/24 23:13:35;;;;;;;3.45;2.15;;;;;;;12.07;69.90;99933.28;7259709;40;20362;31
2023/09/24 23:19:11;;;;;;;2.95;2.00;;;;;;;11.88;71.16;99928.94;7256231;40;20374;31
2023/09/24 23:24:46;;;;;;;2.90;1.80;;;;;;;11.81;71.21;99921.59;7275642;39;20337;31
2023/09/24 23:30:24;;;;;;;3.10;2.10;;;;;;;11.75;71.70;99917.69;7238229;40;20545;31
2023/09/24 23:41:02;;;;;;;2.60;1.70;;;;;;;11.50;73.20;99910.34;7283408;40;20264;31
2023/09/24 23:46:23;;;;;;;4.00;2.20;;;;;;;11.45;73.56;99916.19;7286291;39;20402;31
2023/09/24 23:51:43;;;;;;;2.53;2.07;;;;;;;11.71;72.95;99917.13;7253820;40;20336;31
